Nearby METAR Reports

 

YCOM - Cooma Snowy Mtns, Australia
Distance from station: NE 158km
Updated: 13/06/2021 08:00
Overcast
Overcast
 Wind from calm
Wind: Calm
Temperature: 4°C
Dew Point: 2°C
Humidity: 87%
Barometer: 1015 hPa
Clouds: Overcast
Visibility: 10 km
Cloud details: Overcast 884 m
2021/06/12 22:00 YCOM 122200Z AUTO 00000KT 9999 // OVC029 04/02 Q1015
YMAY - Albury Airport, Australia
Distance from station: NNW 165km
Updated: 13/06/2021 08:30
Overcast
Overcast
 Wind from N
Wind: N 7 km/h
Temperature: 9°C
Wind Chill: 8°C
Dew Point: 9°C
Humidity: 100%
Barometer: 1019 hPa
Clouds: Overcast
Visibility: 4 km
Cloud details: Overcast 61 m
2021/06/12 22:30 YMAY 122230Z AUTO 36004KT 3500 // OVC002 09/09 Q1019
 
YWGT - Wangaratta Airport, Australia
Distance from station: NW 172km
Updated: 13/06/2021 08:30
Overcast
Overcast
 Wind from NNE
Wind: NNE 7 km/h
Temperature: 9°C
Wind Chill: 8°C
Dew Point: 9°C
Humidity: 100%
Barometer: 1019 hPa
Clouds: Overcast
Visibility: 10 km
Cloud details: Overcast 122 m
Overcast 335 m
2021/06/12 22:30 YWGT 122230Z AUTO 02004KT 9999 // OVC004 OVC011 09/09 Q1019
YMER - Merimbula Airport, Australia
Distance from station: ENE 192km
Updated: 13/06/2021 08:00
Clear
Clear
 Wind from W
Wind: W 13 km/h
Temperature: 13°C
Dew Point: 7°C
Humidity: 67%
Barometer: 1014 hPa
Clouds: Clear
Visibility: 10 km
2021/06/12 22:00 YMER 122200Z AUTO 28007KT 9999 // NCD 13/07 Q1014